Time;durP1;ratioP1;P1;durP2;ratioP2;P2;SDS_P1;SDS_P2;PMS_P1;PMS_P2;Temp;Humidity;BMP_temperature;BMP_pressure;BME280_temperature;BME280_humidity;BME280_pressure;Samples;Min_cycle;Max_cycle;Signal;HPM_P1;HPM_P2
2022/04/23 00:01:30;;;;;;;3.03;1.60;;;15.80;1.00;;;;;;5057352;28;20482;-83
2022/04/23 00:03:56;;;;;;;4.20;1.60;;;15.80;1.00;;;;;;5056754;28;20029;-83
2022/04/23 00:06:21;;;;;;;1.77;1.20;;;16.00;1.00;;;;;;5053300;28;20063;-83
2022/04/23 00:08:47;;;;;;;2.80;1.40;;;16.00;1.00;;;;;;5059318;28;20025;-83
2022/04/23 00:11:13;;;;;;;3.67;1.40;;;16.00;1.00;;;;;;5056824;28;20021;-83
2022/04/23 00:13:38;;;;;;;3.65;1.77;;;16.00;1.00;;;;;;5056014;28;20079;-83
2022/04/23 00:16:07;;;;;;;2.80;1.60;;;16.10;1.00;;;;;;5055616;28;20081;-83
2022/04/23 00:18:34;;;;;;;2.58;1.38;;;16.20;1.00;;;;;;5053496;28;20033;-83
2022/04/23 00:20:59;;;;;;;2.97;1.50;;;16.30;1.00;;;;;;5057534;28;20040;-83
2022/04/23 00:23:27;;;;;;;2.80;1.50;;;16.10;1.00;;;;;;5055979;28;20025;-83
2022/04/23 00:25:54;;;;;;;5.13;1.50;;;16.10;1.00;;;;;;5055326;28;20029;-83
2022/04/23 00:28:20;;;;;;;4.60;1.40;;;16.20;1.00;;;;;;5057028;28;22060;-83
2022/04/23 00:30:46;;;;;;;1.40;1.30;;;16.10;1.00;;;;;;5053805;28;20052;-83
2022/04/23 00:33:11;;;;;;;2.42;1.40;;;16.10;1.00;;;;;;5053027;28;20492;-83
2022/04/23 00:35:37;;;;;;;3.15;1.50;;;16.30;1.00;;;;;;5056325;28;20051;-83
2022/04/23 00:38:05;;;;;;;3.40;1.40;;;16.10;1.00;;;;;;5056997;28;20025;-83
2022/04/23 00:40:31;;;;;;;3.70;1.58;;;16.10;1.00;;;;;;5056096;28;20041;-83
2022/04/23 00:42:58;;;;;;;2.63;1.63;;;16.00;1.00;;;;;;5056337;28;20020;-83
2022/04/23 00:45:25;;;;;;;4.15;1.50;;;16.00;1.00;;;;;;5052153;28;20075;-83
2022/04/23 00:47:52;;;;;;;2.33;1.60;;;16.00;1.00;;;;;;5058140;28;20028;-83
2022/04/23 00:50:22;;;;;;;2.35;1.50;;;16.10;1.00;;;;;;5056273;28;20035;-83
2022/04/23 00:53:00;;;;;;;3.78;1.52;;;16.10;1.00;;;;;;5054934;28;20025;-83
2022/04/23 00:55:27;;;;;;;2.40;1.50;;;16.20;1.00;;;;;;5054521;28;20029;-83
2022/04/23 00:57:53;;;;;;;2.55;1.60;;;16.30;1.00;;;;;;5055342;28;20535;-83
2022/04/23 01:00:19;;;;;;;2.38;1.67;;;16.30;1.00;;;;;;5052858;28;20033;-82
2022/04/23 01:02:45;;;;;;;3.28;1.70;;;16.30;1.00;;;;;;5058287;28;20064;-83
2022/04/23 01:05:10;;;;;;;2.67;1.70;;;16.20;1.00;;;;;;5054634;28;20481;-83
2022/04/23 01:07:45;;;;;;;4.10;1.77;;;16.10;1.00;;;;;;5056149;28;20078;-84
2022/04/23 01:10:11;;;;;;;2.60;1.50;;;16.20;1.00;;;;;;5055733;28;20024;-83
2022/04/23 01:12:38;;;;;;;2.92;1.80;;;16.00;1.00;;;;;;5051353;28;20025;-83
2022/04/23 01:15:05;;;;;;;2.33;1.55;;;16.10;1.00;;;;;;5055778;28;20021;-83
2022/04/23 01:17:31;;;;;;;2.80;1.55;;;16.10;1.00;;;;;;5056979;28;20025;-83
2022/04/23 01:19:57;;;;;;;2.97;1.40;;;15.90;1.00;;;;;;5055652;28;20079;-83
2022/04/23 01:22:26;;;;;;;3.47;1.77;;;16.00;1.00;;;;;;5055647;28;20029;-83
2022/04/23 01:24:52;;;;;;;2.28;1.45;;;16.00;1.00;;;;;;5054436;28;20043;-83
2022/04/23 01:27:18;;;;;;;3.70;1.48;;;16.00;1.00;;;;;;5052379;28;20037;-83
2022/04/23 01:29:45;;;;;;;3.92;1.42;;;16.00;1.00;;;;;;5058016;28;20025;-83
2022/04/23 01:32:10;;;;;;;3.80;1.60;;;16.00;1.00;;;;;;5054227;28;20029;-82
2022/04/23 01:34:36;;;;;;;4.40;2.00;;;16.10;1.00;;;;;;5053665;28;20195;-83
2022/04/23 01:37:02;;;;;;;1.73;1.60;;;16.00;1.00;;;;;;5053442;28;20107;-83
2022/04/23 01:39:28;;;;;;;5.18;1.60;;;16.00;1.00;;;;;;5051141;28;20040;-83
2022/04/23 01:41:54;;;;;;;3.13;1.55;;;16.00;1.00;;;;;;5057415;28;20082;-83
2022/04/23 01:44:20;;;;;;;4.95;1.83;;;16.10;1.00;;;;;;5053896;28;20029;-83
2022/04/23 01:46:45;;;;;;;4.07;1.40;;;16.10;1.00;;;;;;5055471;28;20498;-83
2022/04/23 01:49:11;;;;;;;3.78;1.70;;;16.10;1.00;;;;;;5055584;28;20025;-83
2022/04/23 01:51:37;;;;;;;3.10;1.60;;;15.80;1.00;;;;;;5052294;28;20111;-84
2022/04/23 01:54:02;;;;;;;3.42;1.60;;;15.70;1.00;;;;;;5054813;28;20048;-83
2022/04/23 01:56:28;;;;;;;3.92;1.67;;;15.80;1.00;;;;;;5056099;28;20033;-83
2022/04/23 01:58:53;;;;;;;2.70;1.77;;;15.80;1.00;;;;;;5055057;28;20087;-83
2022/04/23 02:01:19;;;;;;;3.17;1.80;;;15.80;1.00;;;;;;5053785;28;20068;-83
2022/04/23 02:03:47;;;;;;;4.15;1.73;;;15.70;1.00;;;;;;5053118;28;20025;-83
2022/04/23 02:06:13;;;;;;;2.22;1.60;;;15.70;1.00;;;;;;5052126;28;20049;-83
2022/04/23 02:08:39;;;;;;;2.85;1.80;;;15.80;1.00;;;;;;5056939;28;20052;-83
2022/04/23 02:11:05;;;;;;;5.15;1.80;;;15.80;1.00;;;;;;5053381;28;20382;-83
2022/04/23 02:13:31;;;;;;;2.42;1.80;;;15.70;1.00;;;;;;5053262;28;20027;-82
2022/04/23 02:15:57;;;;;;;3.15;1.50;;;15.70;1.00;;;;;;5054470;28;20067;-83
2022/04/23 02:18:23;;;;;;;3.35;1.70;;;15.50;1.00;;;;;;5050547;28;20111;-83
2022/04/23 02:20:49;;;;;;;2.03;1.77;;;15.70;1.00;;;;;;5056653;28;20171;-82
2022/04/23 02:23:14;;;;;;;2.70;1.73;;;15.60;1.00;;;;;;5054207;28;20505;-83
2022/04/23 02:25:42;;;;;;;3.90;1.80;;;15.40;1.00;;;;;;5054924;28;20037;-83
2022/04/23 02:28:08;;;;;;;3.45;1.60;;;15.50;1.00;;;;;;5054335;28;20025;-83
2022/04/23 02:30:33;;;;;;;3.00;1.60;;;15.50;1.00;;;;;;5051351;28;20029;-83
2022/04/23 02:32:59;;;;;;;3.53;1.80;;;15.30;1.00;;;;;;5054891;28;20440;-83
2022/04/23 02:35:25;;;;;;;2.35;1.60;;;15.20;1.00;;;;;;5053767;28;20053;-83
2022/04/23 02:38:01;;;;;;;4.45;1.80;;;15.30;1.00;;;;;;5054141;28;20036;-83
2022/04/23 02:40:28;;;;;;;2.67;1.70;;;15.40;1.00;;;;;;5054737;28;20060;-83
2022/04/23 02:42:55;;;;;;;2.42;1.70;;;15.50;1.00;;;;;;5053722;28;20028;-83
2022/04/23 02:45:21;;;;;;;2.85;1.52;;;15.60;1.00;;;;;;5049399;28;20021;-83
2022/04/23 02:47:51;;;;;;;3.35;1.50;;;15.70;1.00;;;;;;5055674;28;20107;-84
2022/04/23 02:50:27;;;;;;;2.25;1.52;;;15.70;1.00;;;;;;5052516;28;20037;-83
2022/04/23 02:52:57;;;;;;;3.10;1.50;;;15.70;1.00;;;;;;5053115;28;20025;-83
2022/04/23 02:55:25;;;;;;;2.72;1.45;;;15.80;1.00;;;;;;5054280;28;20021;-83
2022/04/23 02:57:51;;;;;;;2.38;1.40;;;15.80;1.00;;;;;;5053458;28;20470;-83
2022/04/23 03:00:17;;;;;;;3.25;1.73;;;15.80;1.00;;;;;;5050621;28;20056;-83
2022/04/23 03:02:44;;;;;;;2.90;1.42;;;15.80;1.00;;;;;;5056278;28;20025;-83
2022/04/23 03:05:14;;;;;;;3.38;1.45;;;15.80;1.00;;;;;;5053869;28;20394;-83
2022/04/23 03:07:40;;;;;;;3.53;1.60;;;15.90;1.00;;;;;;5052291;28;20470;-83
2022/04/23 03:10:08;;;;;;;2.00;1.77;;;15.90;1.00;;;;;;5056325;28;20030;-83
2022/04/23 03:12:38;;;;;;;3.65;1.60;;;15.90;1.00;;;;;;5053648;28;20040;-84
2022/04/23 03:15:05;;;;;;;2.58;1.80;;;15.90;1.00;;;;;;5057931;28;20426;-83
2022/04/23 03:17:31;;;;;;;5.07;1.95;;;15.80;1.00;;;;;;5059547;28;20031;-83
2022/04/23 03:19:57;;;;;;;2.45;1.70;;;15.80;1.00;;;;;;5057622;28;20409;-83
2022/04/23 03:22:23;;;;;;;3.38;1.33;;;15.80;1.00;;;;;;5056982;28;20067;-83
2022/04/23 03:24:49;;;;;;;2.40;1.40;;;15.80;1.00;;;;;;5056820;28;20032;-83
2022/04/23 03:27:15;;;;;;;2.92;1.67;;;15.90;1.00;;;;;;5055530;28;20033;-83
2022/04/23 03:29:41;;;;;;;3.58;1.55;;;16.00;1.00;;;;;;5058359;28;20060;-82
2022/04/23 03:32:07;;;;;;;1.88;1.58;;;15.90;1.00;;;;;;5056315;28;20507;-83
2022/04/23 03:34:32;;;;;;;2.42;1.60;;;15.90;1.00;;;;;;5057287;28;20120;-83
2022/04/23 03:36:58;;;;;;;2.05;1.60;;;16.00;1.00;;;;;;5058065;28;20157;-83
2022/04/23 03:39:24;;;;;;;2.63;1.25;;;16.00;1.00;;;;;;5036424;28;20029;-83
2022/04/23 03:41:50;;;;;;;2.35;1.50;;;16.00;1.00;;;;;;5061458;28;20025;-81
2022/04/23 03:44:16;;;;;;;3.85;1.50;;;16.00;1.00;;;;;;5058118;28;20131;-83
2022/04/23 03:46:41;;;;;;;1.88;1.42;;;15.90;1.00;;;;;;5058125;28;20032;-83
2022/04/23 03:49:09;;;;;;;3.17;1.50;;;15.90;1.00;;;;;;5056780;28;20396;-83
2022/04/23 03:51:35;;;;;;;2.33;1.40;;;15.90;1.00;;;;;;5052167;28;20037;-83
2022/04/23 03:54:01;;;;;;;1.70;1.60;;;15.90;1.00;;;;;;5057638;28;20422;-83
2022/04/23 03:56:28;;;;;;;3.53;1.50;;;15.90;1.00;;;;;;5058520;28;20033;-83
2022/04/23 03:58:54;;;;;;;2.67;1.75;;;16.00;1.00;;;;;;5057369;28;20090;-84
2022/04/23 04:01:20;;;;;;;2.33;1.60;;;15.90;1.00;;;;;;5055223;28;20408;-83
2022/04/23 04:03:46;;;;;;;3.47;1.40;;;15.90;1.00;;;;;;5055287;28;20029;-83
2022/04/23 04:06:11;;;;;;;1.75;1.50;;;16.00;1.00;;;;;;5055907;28;20032;-83
2022/04/23 04:08:37;;;;;;;1.70;1.33;;;16.00;1.00;;;;;;5057116;28;20056;-83
2022/04/23 04:11:03;;;;;;;5.28;1.98;;;16.00;1.00;;;;;;5055887;28;20029;-83
2022/04/23 04:13:28;;;;;;;2.40;1.70;;;16.00;1.00;;;;;;5057327;28;20551;-83
2022/04/23 04:15:55;;;;;;;2.72;1.70;;;16.00;1.00;;;;;;5056464;28;20035;-83
2022/04/23 04:18:22;;;;;;;6.07;1.75;;;16.10;1.00;;;;;;5052327;28;20486;-83
2022/04/23 04:20:49;;;;;;;3.47;2.03;;;16.10;1.00;;;;;;5057119;28;20451;-83
2022/04/23 04:23:15;;;;;;;2.47;1.80;;;16.10;1.00;;;;;;5056844;28;20021;-83
2022/04/23 04:25:41;;;;;;;2.95;1.48;;;16.10;1.00;;;;;;5056952;28;20028;-83
2022/04/23 04:28:09;;;;;;;2.67;1.52;;;16.10;1.00;;;;;;5057200;28;20544;-83
2022/04/23 04:33:20;;;;;;;2.38;1.60;;;16.10;1.00;;;;;;5052660;28;20390;-83
2022/04/23 04:35:45;;;;;;;2.75;1.45;;;16.00;1.00;;;;;;5058638;28;20037;-83
2022/04/23 04:38:11;;;;;;;1.90;1.38;;;16.10;1.00;;;;;;5056756;28;20028;-83
2022/04/23 04:40:37;;;;;;;3.03;1.50;;;16.00;1.00;;;;;;5056588;28;20041;-83
2022/04/23 04:43:04;;;;;;;4.22;2.10;;;15.90;1.00;;;;;;5056464;28;20020;-84
2022/04/23 04:45:29;;;;;;;4.07;1.50;;;16.10;1.00;;;;;;5051504;28;20386;-83
2022/04/23 04:47:55;;;;;;;5.45;1.90;;;16.10;1.00;;;;;;5057756;28;20023;-83
2022/04/23 04:50:20;;;;;;;2.13;1.40;;;16.00;1.00;;;;;;5054907;28;20040;-83
2022/04/23 04:52:46;;;;;;;3.15;1.48;;;16.00;1.00;;;;;;5056475;28;20469;-84
2022/04/23 04:55:12;;;;;;;4.88;1.70;;;16.10;1.00;;;;;;5056341;28;20060;-84
2022/04/23 04:57:37;;;;;;;4.03;1.60;;;15.90;1.00;;;;;;5052043;28;20026;-83
2022/04/23 05:00:04;;;;;;;2.60;1.63;;;15.90;1.00;;;;;;5056187;28;20075;-84
2022/04/23 05:02:30;;;;;;;4.93;2.47;;;16.00;1.00;;;;;;5057016;28;20108;-83
2022/04/23 05:04:55;;;;;;;6.00;2.42;;;16.10;1.00;;;;;;5056104;28;20100;-83
2022/04/23 05:07:21;;;;;;;3.45;2.30;;;16.00;1.00;;;;;;5056198;28;20032;-83
2022/04/23 05:09:47;;;;;;;2.00;1.77;;;16.10;1.00;;;;;;5054365;28;20056;-83
2022/04/23 05:12:12;;;;;;;4.63;1.92;;;16.10;1.00;;;;;;5053256;28;20481;-84
2022/04/23 05:14:38;;;;;;;4.10;1.83;;;16.10;1.00;;;;;;5058288;28;20100;-84
2022/04/23 05:17:04;;;;;;;4.82;2.60;;;16.10;1.00;;;;;;5055510;28;20029;-83
2022/04/23 05:19:29;;;;;;;2.80;2.00;;;16.00;1.00;;;;;;5055870;28;20040;-83
2022/04/23 05:21:55;;;;;;;3.65;1.73;;;16.10;1.00;;;;;;5055371;28;20066;-83
2022/04/23 05:24:20;;;;;;;5.72;1.90;;;16.00;1.00;;;;;;5051590;28;20030;-83
2022/04/23 05:26:46;;;;;;;3.10;1.70;;;15.80;1.00;;;;;;5056107;28;20028;-85
2022/04/23 05:29:12;;;;;;;4.10;2.00;;;15.70;1.00;;;;;;5054116;28;20151;-85
2022/04/23 05:31:38;;;;;;;3.53;1.52;;;15.60;1.00;;;;;;5054634;28;20436;-84
2022/04/23 05:34:05;;;;;;;4.32;2.13;;;15.80;1.00;;;;;;5055329;28;20493;-83
2022/04/23 05:36:30;;;;;;;2.58;1.70;;;15.80;1.00;;;;;;5051280;28;20025;-85
2022/04/23 05:38:56;;;;;;;3.58;2.00;;;16.00;1.00;;;;;;5056677;28;20028;-85
2022/04/23 05:41:22;;;;;;;2.72;1.80;;;16.00;1.00;;;;;;5054031;28;20595;-85
2022/04/23 05:43:48;;;;;;;3.97;1.80;;;15.90;1.00;;;;;;5055209;28;20017;-87
2022/04/23 05:46:16;;;;;;;4.40;2.03;;;15.90;1.00;;;;;;5053002;28;20035;-86
2022/04/23 05:48:42;;;;;;;2.90;2.22;;;15.80;1.00;;;;;;5052601;28;20025;-86
2022/04/23 05:51:08;;;;;;;3.90;1.80;;;15.80;1.00;;;;;;5053898;28;20036;-85
2022/04/23 05:53:34;;;;;;;4.03;1.90;;;15.90;1.00;;;;;;5055167;28;20025;-86
2022/04/23 05:56:00;;;;;;;3.78;2.00;;;16.10;1.00;;;;;;5055164;28;20029;-86
2022/04/23 05:58:25;;;;;;;3.50;1.67;;;16.10;1.00;;;;;;5054490;28;20092;-85
2022/04/23 06:00:51;;;;;;;2.58;1.90;;;16.10;1.00;;;;;;5066252;28;20090;-86
2022/04/23 06:03:17;;;;;;;2.92;2.03;;;16.00;1.00;;;;;;5051862;28;20036;-86
2022/04/23 06:05:43;;;;;;;3.58;1.60;;;16.00;1.00;;;;;;5055700;28;20040;-86
2022/04/23 06:08:08;;;;;;;3.72;2.10;;;16.10;1.00;;;;;;5053323;28;20028;-86
2022/04/23 06:10:35;;;;;;;4.57;1.98;;;16.10;1.00;;;;;;5054957;28;20409;-85
2022/04/23 06:13:00;;;;;;;3.42;2.20;;;15.90;1.00;;;;;;5054802;28;20496;-85
2022/04/23 06:15:26;;;;;;;4.25;2.40;;;15.80;1.00;;;;;;5047462;28;20030;-85
2022/04/23 06:17:52;;;;;;;3.50;2.10;;;15.80;1.00;;;;;;5056801;28;20029;-86
2022/04/23 06:20:17;;;;;;;3.72;2.25;;;15.70;1.00;;;;;;5054695;28;20045;-86
2022/04/23 06:22:43;;;;;;;2.83;2.08;;;15.80;1.00;;;;;;5055024;28;20466;-85
2022/04/23 06:25:09;;;;;;;5.15;2.35;;;16.10;1.00;;;;;;5054552;28;20505;-86
2022/04/23 06:27:36;;;;;;;4.95;1.77;;;16.10;1.00;;;;;;5051309;28;20035;-86
2022/04/23 06:30:03;;;;;;;2.72;1.88;;;16.40;1.00;;;;;;5054363;28;20143;-86
2022/04/23 06:32:29;;;;;;;3.58;2.00;;;16.50;1.00;;;;;;5055286;28;20025;-86
2022/04/23 06:34:54;;;;;;;4.65;1.88;;;16.60;1.00;;;;;;5054350;28;20756;-86
2022/04/23 06:37:20;;;;;;;4.03;2.00;;;16.50;1.00;;;;;;5054851;28;20032;-86
2022/04/23 06:39:45;;;;;;;4.53;1.90;;;16.40;1.00;;;;;;5052590;28;20125;-86
2022/04/23 06:42:11;;;;;;;2.92;1.83;;;16.50;1.00;;;;;;5052891;28;20035;-86
2022/04/23 06:44:37;;;;;;;2.63;2.00;;;16.40;1.00;;;;;;5053164;28;20027;-85
2022/04/23 06:47:03;;;;;;;3.55;1.73;;;16.40;1.00;;;;;;5052766;28;20025;-86
2022/04/23 06:49:29;;;;;;;5.45;1.98;;;16.40;1.00;;;;;;5054157;28;20032;-85
2022/04/23 06:51:56;;;;;;;3.75;1.90;;;16.30;1.00;;;;;;5053881;28;20036;-86
2022/04/23 06:54:23;;;;;;;4.95;2.20;;;16.20;1.00;;;;;;5049408;28;20029;-85
2022/04/23 06:56:49;;;;;;;3.63;1.73;;;16.20;1.00;;;;;;5055908;28;20029;-85
2022/04/23 06:59:14;;;;;;;2.50;1.85;;;16.30;1.00;;;;;;5052892;28;20124;-86
2022/04/23 07:01:40;;;;;;;5.75;1.70;;;16.30;1.00;;;;;;5054939;28;20026;-86
2022/04/23 07:04:07;;;;;;;2.42;1.70;;;16.50;1.00;;;;;;5054023;28;20029;-86
2022/04/23 07:06:33;;;;;;;5.05;2.03;;;16.60;1.00;;;;;;5050655;28;20021;-85
2022/04/23 07:08:59;;;;;;;8.10;2.10;;;16.60;1.00;;;;;;5055558;28;20037;-87
2022/04/23 07:11:25;;;;;;;7.57;1.95;;;16.70;1.00;;;;;;5053271;28;20025;-86
2022/04/23 07:13:51;;;;;;;6.78;1.92;;;16.90;1.00;;;;;;5054364;28;20029;-86
2022/04/23 07:16:17;;;;;;;3.85;1.90;;;17.30;1.00;;;;;;5054303;28;20038;-86
2022/04/23 07:18:43;;;;;;;3.10;1.67;;;17.50;1.00;;;;;;5052224;28;20040;-86
2022/04/23 07:21:09;;;;;;;3.67;1.67;;;17.40;1.00;;;;;;5053099;28;20033;-86
2022/04/23 07:26:19;;;;;;;3.90;1.58;;;17.40;1.00;;;;;;5053981;28;20040;-86
2022/04/23 07:28:45;;;;;;;3.08;1.92;;;17.50;1.00;;;;;;5053091;28;20021;-86
2022/04/23 07:31:11;;;;;;;2.42;1.80;;;17.40;1.00;;;;;;5054410;28;20082;-86
2022/04/23 07:39:04;;;;;;;3.67;2.10;;;17.70;1.00;;;;;;5064718;28;20028;-86
2022/04/23 07:41:30;;;;;;;4.35;1.55;;;17.80;1.00;;;;;;5054888;28;20036;-86
2022/04/23 07:43:59;;;;;;;5.32;2.20;;;17.90;1.00;;;;;;5054039;28;20036;-86
2022/04/23 07:46:24;;;;;;;3.05;1.80;;;18.00;1.00;;;;;;5054107;28;20056;-81
2022/04/23 07:48:50;;;;;;;7.25;1.85;;;17.70;1.00;;;;;;5052975;28;20040;-81
2022/04/23 07:51:17;;;;;;;7.38;2.00;;;17.80;1.00;;;;;;5049396;28;20108;-84
2022/04/23 07:53:42;;;;;;;5.38;1.90;;;17.70;1.00;;;;;;5034466;28;20091;-83
2022/04/23 07:56:08;;;;;;;3.25;1.80;;;17.40;1.00;;;;;;5040564;28;20120;-85
2022/04/23 07:58:34;;;;;;;3.05;1.90;;;17.50;1.00;;;;;;5045309;28;20033;-89
2022/04/23 08:00:59;;;;;;;2.80;1.80;;;17.40;1.00;;;;;;5040371;28;20037;-87
2022/04/23 08:03:25;;;;;;;3.90;1.80;;;17.50;1.00;;;;;;5051489;28;20166;-84
2022/04/23 08:05:51;;;;;;;2.50;1.70;;;17.60;1.00;;;;;;5039627;28;20065;-85
2022/04/23 08:08:21;;;;;;;3.28;1.80;;;17.40;1.00;;;;;;5035431;28;20061;-83
2022/04/23 08:10:47;;;;;;;2.85;1.70;;;17.20;1.00;;;;;;5043087;28;20029;-81
2022/04/23 08:13:13;;;;;;;3.10;1.80;;;17.50;1.00;;;;;;5048866;28;20107;-82
2022/04/23 08:15:39;;;;;;;4.93;2.00;;;17.60;1.00;;;;;;5049090;28;20029;-84
2022/04/23 08:18:05;;;;;;;3.63;1.83;;;17.60;1.00;;;;;;5051107;28;20075;-84
2022/04/23 08:20:31;;;;;;;3.38;2.03;;;17.60;1.00;;;;;;5049349;28;20039;-83
2022/04/23 08:22:57;;;;;;;2.90;1.90;;;17.50;1.00;;;;;;5048136;28;20033;-84
2022/04/23 08:25:24;;;;;;;4.88;2.22;;;17.40;1.00;;;;;;5047902;28;20112;-83
2022/04/23 08:27:50;;;;;;;3.88;1.98;;;17.50;1.00;;;;;;5049713;28;20025;-84
2022/04/23 08:30:35;;;;;;;7.22;2.00;;;17.50;1.00;;;;;;5051300;28;20082;-84
2022/04/23 08:33:05;;;;;;;6.57;2.03;;;17.50;1.00;;;;;;5050556;28;20111;-83
2022/04/23 08:35:31;;;;;;;3.45;1.88;;;17.40;1.00;;;;;;5047853;28;20397;-84
2022/04/23 08:37:57;;;;;;;3.00;1.85;;;17.40;1.00;;;;;;5047848;28;20024;-84
2022/04/23 08:40:23;;;;;;;4.60;1.70;;;17.20;1.00;;;;;;5047383;28;20033;-83
2022/04/23 08:42:49;;;;;;;3.03;1.65;;;17.20;1.00;;;;;;5038004;28;20033;-83
2022/04/23 08:45:14;;;;;;;4.20;1.90;;;17.20;1.00;;;;;;5036727;28;20033;-84
2022/04/23 08:47:44;;;;;;;6.68;1.80;;;17.40;1.00;;;;;;5038505;28;20024;-84
2022/04/23 08:50:10;;;;;;;3.20;2.10;;;17.30;1.00;;;;;;5039147;28;20083;-84
2022/04/23 08:52:37;;;;;;;5.80;2.53;;;17.30;1.00;;;;;;5048950;28;20029;-83
2022/04/23 08:55:06;;;;;;;4.97;1.90;;;17.30;1.00;;;;;;5056361;28;20036;-84
2022/04/23 08:57:32;;;;;;;5.28;2.00;;;17.40;1.00;;;;;;5052896;28;20014;-84
2022/04/23 08:59:59;;;;;;;4.65;2.22;;;17.30;1.00;;;;;;5057741;28;20033;-84
2022/04/23 09:02:27;;;;;;;9.48;2.30;;;17.40;1.00;;;;;;5056988;28;20017;-84
2022/04/23 09:04:56;;;;;;;3.03;2.00;;;17.50;1.00;;;;;;5056431;28;20036;-84
2022/04/23 09:07:24;;;;;;;2.53;2.03;;;17.50;1.00;;;;;;5055504;28;20025;-84
2022/04/23 09:09:51;;;;;;;3.05;2.20;;;17.60;1.00;;;;;;5055109;28;20064;-83
2022/04/23 09:12:18;;;;;;;5.18;2.25;;;17.70;1.00;;;;;;5053229;28;20029;-84
2022/04/23 09:14:46;;;;;;;4.80;2.30;;;17.70;1.00;;;;;;5058277;28;20061;-84
2022/04/23 09:25:41;;;;;;;4.43;2.70;;;18.00;1.00;;;;;;5057096;28;20063;-81
2022/04/23 09:28:17;;;;;;;6.45;2.75;;;18.00;1.00;;;;;;5065069;28;20032;-82
2022/04/23 09:30:43;;;;;;;5.88;2.50;;;18.10;1.00;;;;;;5052413;28;20386;-82
2022/04/23 09:33:09;;;;;;;3.90;2.15;;;18.20;1.00;;;;;;5054549;28;20017;-81
2022/04/23 09:35:34;;;;;;;4.55;2.63;;;18.20;1.00;;;;;;5064289;28;20408;-83
2022/04/23 09:38:18;;;;;;;5.38;2.40;;;18.20;1.00;;;;;;5056690;28;20024;-82
2022/04/23 09:40:57;;;;;;;4.82;2.40;;;18.40;1.00;;;;;;5055847;28;20417;-83
2022/04/23 09:43:31;;;;;;;3.85;2.28;;;18.70;1.00;;;;;;5054284;28;20036;-83
2022/04/23 09:46:00;;;;;;;9.43;2.70;;;18.80;1.00;;;;;;5067173;28;20060;-87
2022/04/23 09:48:25;;;;;;;3.95;2.13;;;18.90;1.00;;;;;;5050998;28;20369;-81
2022/04/23 09:50:51;;;;;;;3.75;2.28;;;18.80;1.00;;;;;;5057152;28;20051;-83
2022/04/23 09:53:18;;;;;;;6.25;2.50;;;19.10;1.00;;;;;;5055687;28;20102;-85
2022/04/23 09:55:45;;;;;;;4.20;2.55;;;19.40;1.00;;;;;;5055667;28;20124;-88
2022/04/23 09:58:13;;;;;;;3.03;2.13;;;19.50;1.00;;;;;;5053879;28;20489;-86
2022/04/23 10:00:49;;;;;;;3.65;2.30;;;19.10;1.00;;;;;;5050947;28;20037;-86
2022/04/23 10:03:15;;;;;;;4.68;1.77;;;18.90;1.00;;;;;;5052579;28;20047;-87
2022/04/23 10:05:46;;;;;;;2.28;1.50;;;18.80;1.00;;;;;;5057118;28;20033;-86
2022/04/23 10:08:12;;;;;;;4.13;1.67;;;18.60;1.00;;;;;;5055194;28;20025;-88
2022/04/23 10:10:48;;;;;;;2.42;1.90;;;18.60;1.00;;;;;;5055213;28;20556;-87
2022/04/23 10:13:18;;;;;;;2.63;1.98;;;18.60;1.00;;;;;;5055108;28;20042;-87
2022/04/23 10:15:47;;;;;;;2.55;1.85;;;18.60;1.00;;;;;;5053165;28;20401;-82
2022/04/23 10:18:14;;;;;;;3.40;1.70;;;18.80;1.00;;;;;;5051671;28;20021;-79
2022/04/23 10:20:40;;;;;;;4.60;1.63;;;18.90;1.00;;;;;;5054380;28;20067;-81
2022/04/23 10:23:32;;;;;;;2.38;1.30;;;18.80;1.00;;;;;;5054594;28;20028;-79
2022/04/23 10:26:09;;;;;;;2.13;1.60;;;19.00;1.00;;;;;;5054668;28;20053;-80
2022/04/23 10:28:44;;;;;;;2.63;1.45;;;19.40;1.00;;;;;;5054573;28;20504;-82
2022/04/23 10:31:15;;;;;;;1.42;1.25;;;19.60;1.00;;;;;;5054459;28;20115;-82
2022/04/23 10:33:51;;;;;;;2.22;1.30;;;19.80;1.00;;;;;;5051815;28;20029;-86
2022/04/23 10:36:21;;;;;;;3.28;1.45;;;20.10;1.00;;;;;;5051656;28;20056;-87
2022/04/23 10:38:51;;;;;;;2.67;1.38;;;20.10;1.00;;;;;;5055552;28;20032;-89
2022/04/23 10:41:20;;;;;;;3.13;1.60;;;20.00;1.00;;;;;;5054301;28;20481;-87
2022/04/23 10:44:05;;;;;;;4.20;1.48;;;19.80;1.00;;;;;;5054044;28;20040;-84
2022/04/23 10:46:37;;;;;;;3.30;1.42;;;19.60;1.00;;;;;;5054469;28;20120;-86
2022/04/23 10:49:17;;;;;;;2.35;1.50;;;19.40;1.00;;;;;;5053894;28;20100;-81
2022/04/23 10:51:46;;;;;;;3.67;1.73;;;19.40;1.00;;;;;;5051514;28;20412;-82
2022/04/23 10:54:12;;;;;;;3.80;1.50;;;19.50;1.00;;;;;;5052066;28;20024;-84
2022/04/23 10:56:38;;;;;;;3.55;1.73;;;19.50;1.00;;;;;;5055863;28;20029;-87
2022/04/23 10:59:03;;;;;;;3.35;1.73;;;19.60;1.00;;;;;;5054654;28;20024;-86
2022/04/23 11:01:30;;;;;;;2.30;1.40;;;19.60;1.00;;;;;;5058315;28;20048;-88
2022/04/23 11:03:59;;;;;;;3.15;1.50;;;19.60;1.00;;;;;;5065314;28;20020;-84
2022/04/23 11:12:26;;;;;;;2.63;1.50;;;19.50;1.00;;;;;;5064641;28;20112;-85
2022/04/23 11:14:53;;;;;;;3.15;1.70;;;19.50;1.00;;;;;;5056081;28;20032;-84
2022/04/23 11:17:32;;;;;;;4.35;1.92;;;19.60;1.00;;;;;;5052378;28;20623;-82
2022/04/23 11:19:59;;;;;;;2.67;1.50;;;19.70;1.00;;;;;;5051933;28;20044;-81
2022/04/23 11:22:26;;;;;;;1.67;1.30;;;19.40;1.00;;;;;;5054362;28;20104;-84
2022/04/23 11:24:53;;;;;;;1.80;1.40;;;19.60;1.00;;;;;;5052859;28;20075;-83
2022/04/23 11:27:29;;;;;;;3.03;1.42;;;19.60;1.00;;;;;;5050528;28;20121;-83
2022/04/23 11:29:55;;;;;;;2.55;1.50;;;19.70;1.00;;;;;;5062933;28;20115;-86
2022/04/23 11:32:28;;;;;;;3.10;1.58;;;20.00;1.00;;;;;;5057978;28;20071;-94
2022/04/23 11:34:57;;;;;;;1.95;1.25;;;20.20;1.00;;;;;;5058049;28;20503;-85
2022/04/23 11:37:35;;;;;;;2.30;1.33;;;20.10;1.00;;;;;;5057795;28;20039;-85
2022/04/23 11:40:12;;;;;;;5.05;1.77;;;20.20;1.00;;;;;;5057599;28;20041;-84
2022/04/23 11:42:42;;;;;;;1.33;1.00;;;20.20;1.00;;;;;;5054745;28;20025;-87
2022/04/23 11:45:10;;;;;;;2.47;1.23;;;20.10;1.00;;;;;;5057098;28;20050;-86
2022/04/23 11:47:36;;;;;;;2.97;1.20;;;20.10;1.00;;;;;;5058834;28;20067;-86
2022/04/23 11:50:23;;;;;;;2.45;1.40;;;19.90;1.00;;;;;;5057185;28;20048;-86
2022/04/23 11:52:58;;;;;;;2.42;1.58;;;20.30;1.00;;;;;;5057305;28;20083;-86
2022/04/23 11:55:25;;;;;;;1.33;1.10;;;20.40;1.00;;;;;;5055910;28;20039;-86
2022/04/23 11:57:59;;;;;;;1.63;1.10;;;20.30;1.00;;;;;;5054598;28;20098;-86
2022/04/23 12:00:26;;;;;;;2.40;1.20;;;20.10;1.00;;;;;;5053523;28;20044;-86
2022/04/23 12:02:53;;;;;;;2.90;1.20;;;20.00;1.00;;;;;;5058884;28;20031;-86
2022/04/23 12:05:23;;;;;;;1.75;1.17;;;20.10;1.00;;;;;;5057278;28;20033;-86
2022/04/23 12:07:48;;;;;;;1.83;1.20;;;20.20;1.00;;;;;;5057251;28;20025;-86
2022/04/23 12:10:14;;;;;;;2.58;1.10;;;20.30;1.00;;;;;;5057273;28;20451;-86
2022/04/23 12:12:40;;;;;;;1.80;1.15;;;20.30;1.00;;;;;;5054029;28;20017;-87
2022/04/23 12:15:10;;;;;;;2.60;1.23;;;20.10;1.00;;;;;;5056921;28;20108;-87
2022/04/23 12:17:46;;;;;;;2.92;1.42;;;19.90;1.00;;;;;;5058050;28;20052;-86
2022/04/23 12:20:13;;;;;;;1.80;1.00;;;19.60;1.00;;;;;;5057010;28;20047;-86
2022/04/23 12:22:40;;;;;;;1.40;0.80;;;19.30;1.00;;;;;;5057021;28;20052;-86
2022/04/23 12:25:18;;;;;;;2.97;1.00;;;19.30;1.00;;;;;;5057225;28;20028;-86
2022/04/23 12:42:01;;;;;;;2.08;0.80;;;18.90;1.00;;;;;;5069504;28;20043;-86
2022/04/23 12:44:49;;;;;;;1.23;1.10;;;18.90;1.00;;;;;;5055338;28;20579;-86
2022/04/23 12:47:34;;;;;;;1.13;0.63;;;18.90;1.00;;;;;;5056574;28;20053;-86
2022/04/23 12:50:06;;;;;;;1.10;0.70;;;18.90;1.00;;;;;;5056441;28;20108;-86
2022/04/23 12:52:44;;;;;;;1.50;0.90;;;18.70;1.00;;;;;;5056750;28;20075;-86
2022/04/23 12:55:22;;;;;;;1.70;1.30;;;18.90;1.00;;;;;;5056316;28;20032;-85
2022/04/23 12:58:03;;;;;;;0.68;0.68;;;18.90;1.00;;;;;;5054287;28;20025;-86
2022/04/23 13:00:30;;;;;;;1.67;1.00;;;18.90;1.00;;;;;;5035771;28;20029;-86
2022/04/23 13:03:04;;;;;;;1.88;0.75;;;19.00;1.00;;;;;;5065249;28;20025;-86
2022/04/23 13:05:30;;;;;;;1.88;0.65;;;19.00;1.00;;;;;;5088404;28;20036;-86
2022/04/23 13:10:40;;;;;;;2.92;0.75;;;18.80;1.00;;;;;;5056353;28;20035;-86
2022/04/23 13:13:09;;;;;;;3.58;1.33;;;18.80;1.00;;;;;;5054615;28;20021;-86
2022/04/23 13:15:36;;;;;;;1.73;1.20;;;18.90;1.00;;;;;;5050404;28;20124;-86
2022/04/23 13:18:02;;;;;;;2.75;1.40;;;19.00;1.00;;;;;;5056722;28;20025;-86
2022/04/23 13:20:29;;;;;;;2.05;0.70;;;18.90;1.00;;;;;;5055403;28;20096;-86
2022/04/23 13:22:57;;;;;;;3.28;1.52;;;19.10;1.00;;;;;;5055910;28;20021;-86
2022/04/23 13:25:23;;;;;;;1.70;0.80;;;19.30;1.00;;;;;;5055705;28;20051;-86
2022/04/23 13:27:49;;;;;;;3.75;1.23;;;19.30;1.00;;;;;;5053798;28;20489;-86
2022/04/23 13:30:15;;;;;;;2.00;1.10;;;19.30;1.00;;;;;;5052958;28;20033;-87
2022/04/23 13:32:42;;;;;;;1.67;1.10;;;19.30;1.00;;;;;;5057661;28;20107;-86
2022/04/23 13:35:10;;;;;;;1.30;0.77;;;19.30;1.00;;;;;;5055443;28;20110;-86
2022/04/23 13:37:36;;;;;;;1.10;0.80;;;19.20;1.00;;;;;;5055254;28;20029;-86
2022/04/23 13:40:03;;;;;;;2.25;1.08;;;19.40;1.00;;;;;;5055642;28;20070;-86
2022/04/23 13:42:29;;;;;;;1.95;0.88;;;19.40;1.00;;;;;;5035173;28;20502;-86